createdAt,value
2019-02-11T00:04:37.667Z,93.24
2019-02-11T00:09:41.906Z,93.04
2019-02-11T00:14:46.411Z,93.05
2019-02-11T00:19:50.631Z,92.80
2019-02-11T00:35:34.686Z,93.12
2019-02-11T00:40:38.971Z,93.14
2019-02-11T00:56:48.199Z,93.34
2019-02-11T01:01:52.490Z,93.17
2019-02-11T01:06:56.819Z,93.27
2019-02-11T01:12:20.224Z,93.67
2019-02-11T01:28:40.620Z,93.66
2019-02-11T01:38:54.716Z,94.00
2019-02-11T01:44:17.858Z,94.00
2019-02-11T01:49:41.150Z,94.15
2019-02-11T01:54:45.406Z,93.96
2019-02-11T02:00:01.032Z,94.03
2019-02-11T02:05:44.864Z,93.86
2019-02-11T02:10:49.375Z,93.81
2019-02-11T02:16:12.599Z,93.85
2019-02-11T02:26:26.825Z,93.95
2019-02-11T02:31:50.128Z,94.08
2019-02-11T02:36:54.346Z,94.18
2019-02-11T02:42:17.663Z,94.37
2019-02-11T02:47:40.896Z,94.19
2019-02-11T02:53:04.112Z,94.25
2019-02-11T02:58:08.531Z,94.25
2019-02-11T03:03:12.827Z,94.22
2019-02-11T03:13:46.321Z,94.44
2019-02-11T03:18:50.865Z,94.20
2019-02-11T03:23:55.099Z,94.28
2019-02-11T03:28:59.347Z,94.32
2019-02-11T03:34:22.653Z,94.30
2019-02-11T03:39:26.868Z,94.28
2019-02-11T03:44:31.175Z,94.38
2019-02-11T03:49:35.788Z,94.30
2019-02-11T03:59:49.381Z,94.58
2019-02-11T04:05:04.920Z,94.63
2019-02-11T04:10:48.736Z,94.68
2019-02-11T04:15:52.967Z,94.66
2019-02-11T04:20:57.201Z,94.57
2019-02-11T04:31:11.999Z,94.10
2019-02-11T04:36:16.231Z,94.21
2019-02-11T04:41:20.473Z,94.42
2019-02-11T04:46:24.740Z,93.97
2019-02-11T04:56:57.817Z,93.79
2019-02-11T05:02:02.083Z,93.72
2019-02-11T05:07:06.399Z,93.49
2019-02-11T05:12:10.611Z,93.26
2019-02-11T05:17:14.869Z,93.10
2019-02-11T05:22:19.076Z,93.21
2019-02-11T05:27:42.223Z,92.86
2019-02-11T05:32:46.480Z,93.16
2019-02-11T05:43:00.529Z,92.70
2019-02-11T05:48:04.797Z,92.61
2019-02-11T05:53:09.388Z,92.37
2019-02-11T05:58:13.641Z,92.42
2019-02-11T06:08:41.895Z,91.56
2019-02-11T06:13:46.114Z,91.62
2019-02-11T06:18:50.355Z,91.29
2019-02-11T06:23:54.601Z,91.38
2019-02-11T06:29:19.049Z,91.22
2019-02-11T06:34:23.853Z,90.37
2019-02-11T06:44:37.984Z,90.40
2019-02-11T06:54:51.510Z,90.14
2019-02-11T07:00:14.953Z,90.48
2019-02-11T07:05:19.566Z,89.86
2019-02-11T07:10:23.843Z,90.31
2019-02-11T07:15:28.102Z,90.31
2019-02-11T07:26:06.925Z,89.29
2019-02-11T07:31:11.315Z,89.34
2019-02-11T07:36:18.041Z,89.99
2019-02-11T07:47:01.483Z,89.32
2019-02-11T07:57:34.814Z,88.40
2019-02-11T08:02:39.144Z,88.04
2019-02-11T08:08:02.533Z,87.94
2019-02-11T08:13:18.550Z,87.66
2019-02-11T08:18:22.799Z,87.85
2019-02-11T08:23:46.173Z,88.78
2019-02-11T08:34:19.650Z,89.73
2019-02-11T08:39:42.946Z,89.26
2019-02-11T08:50:36.206Z,89.30
2019-02-11T08:55:40.699Z,90.12
2019-02-11T09:00:45.420Z,91.12
2019-02-11T09:06:29.011Z,91.81
2019-02-11T09:11:33.352Z,92.03
2019-02-11T09:16:37.626Z,92.17
2019-02-11T09:21:41.858Z,90.89
2019-02-11T09:26:46.375Z,89.96
2019-02-11T09:32:09.669Z,90.21
2019-02-11T09:37:32.969Z,89.17
2019-02-11T09:42:37.201Z,89.10
2019-02-11T09:47:41.476Z,87.91
2019-02-11T09:52:45.708Z,85.41
2019-02-11T09:57:49.950Z,85.57
2019-02-11T10:02:54.173Z,86.00
2019-02-11T10:13:07.855Z,84.34
2019-02-11T10:18:24.170Z,83.34
2019-02-11T10:23:28.431Z,83.21
2019-02-11T10:28:32.660Z,82.80
2019-02-11T10:38:46.531Z,80.99
2019-02-11T10:43:50.770Z,78.91
2019-02-11T10:49:14.081Z,79.78
2019-02-11T11:10:28.767Z,74.25
2019-02-11T11:15:52.253Z,73.48
2019-02-11T11:20:56.566Z,72.76
2019-02-11T11:26:00.799Z,73.89
2019-02-11T11:31:44.647Z,74.29
2019-02-11T11:37:07.953Z,73.29
2019-02-11T11:42:12.249Z,73.36
2019-02-11T11:47:55.970Z,74.01
2019-02-11T11:53:00.214Z,73.49
2019-02-11T11:58:04.456Z,72.79
2019-02-11T12:03:27.761Z,70.13
2019-02-11T12:08:51.065Z,67.70
2019-02-11T12:13:55.697Z,66.21
2019-02-11T12:24:21.437Z,69.02
2019-02-11T12:29:25.691Z,70.20
2019-02-11T12:34:48.991Z,71.43
2019-02-11T12:39:53.246Z,71.94
2019-02-11T12:44:57.486Z,72.50
2019-02-11T12:50:20.780Z,71.08
2019-02-11T12:55:44.092Z,69.56
2019-02-11T13:05:58.268Z,69.21
2019-02-11T13:11:21.997Z,70.83
2019-02-11T13:16:45.309Z,70.91
2019-02-11T13:21:49.565Z,70.47
2019-02-11T13:27:12.714Z,70.45
2019-02-11T13:32:17.282Z,72.64
2019-02-11T13:37:21.797Z,71.81
2019-02-11T13:42:26.100Z,71.98
2019-02-11T13:52:40.360Z,74.48
2019-02-11T13:57:44.620Z,75.25
2019-02-11T14:03:28.977Z,76.03
2019-02-11T14:08:33.240Z,76.40
2019-02-11T14:19:06.555Z,83.76
2019-02-11T14:24:27.253Z,85.12
2019-02-11T14:29:30.416Z,85.96
2019-02-11T14:35:14.206Z,86.65
2019-02-11T14:40:18.422Z,88.10
2019-02-11T14:45:23.415Z,88.39
2019-02-11T14:50:46.699Z,89.06
2019-02-11T14:55:51.004Z,88.91
2019-02-11T15:06:06.392Z,88.93
2019-02-11T15:11:10.668Z,89.23
2019-02-11T15:16:33.812Z,90.30
2019-02-11T15:27:07.214Z,90.44
2019-02-11T15:37:21.519Z,90.71
2019-02-11T15:42:25.802Z,90.91
2019-02-11T15:53:22.016Z,90.62
2019-02-11T15:58:45.637Z,90.79
2019-02-11T16:09:04.543Z,90.52
2019-02-11T16:20:14.891Z,91.21
2019-02-11T16:25:39.265Z,91.51
2019-02-11T16:30:55.517Z,91.33
2019-02-11T16:35:59.795Z,91.69
2019-02-11T16:46:14.079Z,92.36
2019-02-11T16:51:18.379Z,92.86
2019-02-11T16:56:41.693Z,92.66
2019-02-11T17:01:45.953Z,92.30
2019-02-11T17:06:50.190Z,92.27
2019-02-11T17:12:13.490Z,92.19
2019-02-11T17:43:45.265Z,92.11
2019-02-11T17:49:08.562Z,92.06
2019-02-11T17:59:41.159Z,91.43
2019-02-11T18:04:45.461Z,90.98
2019-02-11T18:09:49.761Z,90.55
2019-02-11T18:25:53.549Z,90.77
2019-02-11T18:30:57.819Z,90.58
2019-02-11T18:36:41.535Z,90.21
2019-02-11T18:41:45.762Z,90.12
2019-02-11T18:46:50.022Z,90.14
2019-02-11T18:51:54.272Z,90.18
2019-02-11T19:07:37.569Z,90.55
2019-02-11T19:12:41.798Z,90.74
2019-02-11T19:17:46.126Z,90.85
2019-02-11T19:22:50.411Z,90.71
2019-02-11T19:28:13.716Z,90.64
2019-02-11T19:33:37.022Z,90.73
2019-02-11T19:39:00.274Z,90.59
2019-02-11T19:44:04.579Z,90.36
2019-02-11T19:49:27.890Z,90.19
2019-02-11T19:54:32.456Z,90.45
2019-02-11T19:59:55.815Z,89.99
2019-02-11T20:10:29.045Z,90.04
2019-02-11T20:15:33.685Z,90.04
2019-02-11T20:26:07.329Z,90.32
2019-02-11T20:31:11.644Z,90.56
2019-02-11T20:41:45.401Z,90.35
2019-02-11T20:46:49.653Z,90.70
2019-02-11T21:02:32.520Z,90.78
2019-02-11T21:07:56.117Z,91.00
2019-02-11T21:13:19.412Z,91.26
2019-02-11T21:18:23.542Z,91.57
2019-02-11T21:28:38.031Z,91.67
2019-02-11T21:34:01.958Z,91.83
2019-02-11T21:39:46.158Z,91.74
2019-02-11T21:45:02.299Z,91.74
2019-02-11T21:50:46.523Z,91.89
2019-02-11T22:01:02.596Z,91.79
2019-02-11T22:06:07.635Z,91.61
2019-02-11T22:11:30.955Z,91.58
2019-02-11T22:16:35.499Z,91.54
2019-02-11T22:21:39.740Z,91.59
2019-02-11T22:31:54.193Z,91.73
2019-02-11T22:36:58.767Z,91.45
2019-02-11T22:42:03.073Z,91.16
2019-02-11T22:47:26.248Z,91.34
2019-02-11T22:52:49.588Z,91.45
2019-02-11T23:18:53.880Z,92.08
2019-02-11T23:23:58.150Z,92.11
2019-02-11T23:34:11.781Z,92.58
2019-02-11T23:44:27.400Z,92.51
2019-02-11T23:49:43.577Z,92.72
2019-02-11T23:54:48.360Z,91.92
2019-02-11T23:59:52.593Z,92.18
